createdAt,value
2023-04-18T00:00:51.908Z,8.14
2023-04-18T00:03:18.847Z,8.71
2023-04-18T00:05:45.578Z,9.00
2023-04-18T00:08:12.196Z,9.87
2023-04-18T00:10:38.674Z,9.78
2023-04-18T00:13:05.256Z,10.14
2023-04-18T00:15:31.754Z,9.96
2023-04-18T00:17:58.620Z,9.77
2023-04-18T00:20:25.211Z,10.79
2023-04-18T00:22:52.792Z,10.20
2023-04-18T00:25:19.577Z,10.34
2023-04-18T00:27:46.398Z,10.55
2023-04-18T00:30:13.008Z,10.53
2023-04-18T00:32:39.756Z,10.22
2023-04-18T00:35:06.293Z,9.64
2023-04-18T00:37:32.724Z,9.24
2023-04-18T00:39:59.554Z,10.02
2023-04-18T00:42:26.104Z,10.26
2023-04-18T00:44:52.917Z,9.23
2023-04-18T00:47:19.488Z,8.85
2023-04-18T00:49:46.048Z,8.52
2023-04-18T00:52:12.844Z,8.14
2023-04-18T00:54:39.484Z,7.93
2023-04-18T00:57:06.064Z,7.77
2023-04-18T00:59:32.691Z,7.54
2023-04-18T01:01:59.334Z,7.48
2023-04-18T01:04:26.348Z,7.71
2023-04-18T01:06:52.910Z,7.83
2023-04-18T01:09:21.219Z,7.63
2023-04-18T01:11:47.925Z,7.67
2023-04-18T01:14:14.849Z,7.70
2023-04-18T01:16:41.554Z,7.53
2023-04-18T01:19:08.326Z,7.44
2023-04-18T01:21:34.861Z,7.61
2023-04-18T01:24:01.419Z,7.45
2023-04-18T01:26:27.966Z,7.48
2023-04-18T01:28:54.498Z,7.56
2023-04-18T01:31:21.174Z,7.61
2023-04-18T01:33:47.842Z,7.51
2023-04-18T01:36:14.602Z,7.64
2023-04-18T01:38:41.363Z,7.74
2023-04-18T01:41:08.711Z,7.85
2023-04-18T01:43:35.344Z,7.94
2023-04-18T01:46:01.810Z,7.98
2023-04-18T01:48:29.568Z,8.07
2023-04-18T01:50:56.543Z,7.84
2023-04-18T01:53:23.169Z,7.96
2023-04-18T01:55:49.652Z,7.89
2023-04-18T01:58:16.301Z,7.97
2023-04-18T02:00:43.120Z,8.02
2023-04-18T02:03:09.817Z,7.88
2023-04-18T02:05:36.422Z,8.08
2023-04-18T02:08:03.212Z,8.42
2023-04-18T02:10:29.781Z,8.44
2023-04-18T02:12:58.154Z,9.10
2023-04-18T02:15:25.014Z,9.70
2023-04-18T02:17:51.527Z,9.23
2023-04-18T02:20:18.305Z,9.86
2023-04-18T02:22:45.231Z,10.80
2023-04-18T02:25:12.065Z,11.31
2023-04-18T02:27:38.824Z,11.53
2023-04-18T02:30:05.407Z,11.21
2023-04-18T02:32:31.901Z,11.32
2023-04-18T02:34:58.488Z,11.38
2023-04-18T02:37:24.978Z,11.47
2023-04-18T02:39:52.516Z,11.69
2023-04-18T02:42:20.090Z,10.89
2023-04-18T02:44:48.683Z,11.11
2023-04-18T02:47:16.164Z,11.52
2023-04-18T02:49:45.221Z,12.02
2023-04-18T02:52:11.760Z,11.81
2023-04-18T02:54:40.415Z,10.40
2023-04-18T02:57:07.067Z,9.54
2023-04-18T02:59:33.622Z,9.64
2023-04-18T03:02:00.519Z,10.64
2023-04-18T03:04:27.123Z,11.30
2023-04-18T03:06:53.681Z,11.58
2023-04-18T03:09:20.274Z,10.99
2023-04-18T03:11:46.706Z,9.64
2023-04-18T03:14:13.443Z,10.58
2023-04-18T03:16:40.085Z,11.09
2023-04-18T03:19:06.717Z,10.78
2023-04-18T03:21:33.506Z,10.88
2023-04-18T03:24:01.543Z,11.66
2023-04-18T03:26:28.037Z,12.03
2023-04-18T03:28:54.849Z,12.21
2023-04-18T03:31:21.748Z,12.15
2023-04-18T03:33:48.692Z,11.95
2023-04-18T03:36:15.218Z,11.96
2023-04-18T03:38:41.812Z,12.29
2023-04-18T03:41:08.423Z,12.49
2023-04-18T03:43:34.921Z,12.14
2023-04-18T03:46:01.495Z,11.72
2023-04-18T03:48:28.051Z,12.11
2023-04-18T03:50:55.622Z,12.47
2023-04-18T03:53:22.414Z,12.47
2023-04-18T03:55:48.924Z,12.67
2023-04-18T03:58:15.528Z,12.72
2023-04-18T04:00:42.121Z,12.84
2023-04-18T04:03:09.832Z,12.87
2023-04-18T04:05:37.483Z,12.86
2023-04-18T04:08:03.970Z,12.91
2023-04-18T04:10:30.769Z,12.96
2023-04-18T04:12:57.278Z,12.87
2023-04-18T04:15:24.049Z,12.84
2023-04-18T04:17:50.671Z,12.33
2023-04-18T04:20:17.605Z,12.52
2023-04-18T04:22:44.430Z,11.53
2023-04-18T04:25:11.041Z,12.22
2023-04-18T04:27:37.522Z,12.44
2023-04-18T04:30:04.173Z,12.25
2023-04-18T04:32:30.774Z,12.16
2023-04-18T04:34:57.315Z,11.16
2023-04-18T04:37:23.885Z,11.98
2023-04-18T04:39:50.701Z,12.01
2023-04-18T04:42:17.647Z,12.16
2023-04-18T04:44:44.188Z,10.62
2023-04-18T04:47:11.114Z,11.03
2023-04-18T04:49:37.894Z,11.76
2023-04-18T04:52:04.708Z,11.97
2023-04-18T04:54:31.346Z,12.16
2023-04-18T04:56:57.908Z,11.80
2023-04-18T04:59:24.808Z,12.16
2023-04-18T05:01:51.477Z,11.38
2023-04-18T05:04:18.685Z,11.31
2023-04-18T05:06:45.506Z,11.65
2023-04-18T05:09:12.837Z,12.06
2023-04-18T05:11:39.562Z,12.41
2023-04-18T05:14:06.138Z,12.51
2023-04-18T05:16:34.025Z,12.34
2023-04-18T05:19:00.599Z,12.11
2023-04-18T05:21:27.061Z,12.00
2023-04-18T05:23:54.464Z,11.74
2023-04-18T05:26:20.941Z,11.49
2023-04-18T05:28:50.116Z,12.25
2023-04-18T05:31:16.937Z,12.57
2023-04-18T05:33:43.516Z,12.67
2023-04-18T05:36:10.374Z,12.74
2023-04-18T05:38:37.206Z,13.08
2023-04-18T05:41:04.039Z,13.24
2023-04-18T05:43:30.506Z,13.34
2023-04-18T05:45:57.925Z,13.11
2023-04-18T05:48:25.751Z,14.36
2023-04-18T05:50:52.667Z,15.16
2023-04-18T05:53:19.510Z,15.26
2023-04-18T05:55:47.260Z,15.33
2023-04-18T05:58:13.919Z,15.28
2023-04-18T06:00:40.723Z,14.34
2023-04-18T06:03:09.272Z,14.18
2023-04-18T06:05:37.406Z,14.54
2023-04-18T06:08:04.974Z,14.73
2023-04-18T06:10:31.800Z,13.98
2023-04-18T06:13:02.024Z,13.51
2023-04-18T06:15:28.840Z,13.95
2023-04-18T06:17:55.546Z,13.87
2023-04-18T06:20:22.262Z,14.24
2023-04-18T06:22:49.096Z,14.47
2023-04-18T06:25:15.828Z,14.66
2023-04-18T06:27:43.104Z,14.68
2023-04-18T06:30:09.929Z,14.49
2023-04-18T06:32:36.792Z,14.42
2023-04-18T06:35:03.612Z,14.62
2023-04-18T06:37:30.240Z,14.73
2023-04-18T06:39:57.073Z,14.52
2023-04-18T06:42:23.546Z,14.80
2023-04-18T06:44:50.122Z,14.88
2023-04-18T06:47:24.946Z,14.78
2023-04-18T06:49:52.417Z,14.89
2023-04-18T06:52:19.764Z,14.93
2023-04-18T06:54:48.812Z,14.82
2023-04-18T06:57:15.398Z,13.71
2023-04-18T06:59:45.800Z,14.15
2023-04-18T07:02:12.586Z,14.19
2023-04-18T07:04:39.346Z,14.33
2023-04-18T07:07:05.972Z,14.30
2023-04-18T07:09:33.527Z,14.02
2023-04-18T07:12:00.071Z,14.53
2023-04-18T07:14:27.020Z,14.67
2023-04-18T07:16:56.783Z,14.35
2023-04-18T07:19:23.349Z,14.48
2023-04-18T07:21:50.867Z,14.68
2023-04-18T07:24:19.539Z,14.96
2023-04-18T07:26:47.908Z,14.78
2023-04-18T07:29:14.964Z,14.89
2023-04-18T07:31:41.416Z,15.06
2023-04-18T07:34:08.013Z,15.33
2023-04-18T07:36:34.654Z,15.32
2023-04-18T07:39:15.387Z,15.41
2023-04-18T07:41:42.353Z,14.93
2023-04-18T07:44:11.236Z,14.90
2023-04-18T07:46:38.311Z,15.09
2023-04-18T07:49:04.880Z,15.39
2023-04-18T07:51:31.709Z,15.48
2023-04-18T07:53:58.257Z,15.58
2023-04-18T07:56:24.924Z,15.78
2023-04-18T07:58:52.352Z,16.13
2023-04-18T08:01:19.078Z,16.01
2023-04-18T08:03:45.755Z,15.30
2023-04-18T08:06:14.402Z,15.12
2023-04-18T08:08:41.007Z,15.02
2023-04-18T08:11:08.845Z,15.47
2023-04-18T08:13:38.107Z,15.28
2023-04-18T08:16:04.719Z,15.47
2023-04-18T08:18:33.656Z,14.75
2023-04-18T08:21:03.020Z,13.50
2023-04-18T08:23:29.844Z,13.95
2023-04-18T08:25:56.624Z,14.35
2023-04-18T08:28:26.951Z,13.62
2023-04-18T08:30:53.672Z,13.76
2023-04-18T08:33:23.636Z,13.41
2023-04-18T08:35:50.498Z,13.51
2023-04-18T08:38:17.177Z,13.37
2023-04-18T08:40:45.213Z,13.23
2023-04-18T08:43:11.836Z,13.67
2023-04-18T08:45:38.562Z,14.38
2023-04-18T08:48:10.028Z,13.50
2023-04-18T08:50:36.609Z,13.87
2023-04-18T08:53:03.197Z,13.03
2023-04-18T08:55:29.735Z,14.09
2023-04-18T08:57:56.312Z,14.28
2023-04-18T09:00:22.943Z,14.02
2023-04-18T09:02:53.826Z,14.75
2023-04-18T09:08:01.861Z,14.61
2023-04-18T09:10:30.184Z,14.20
2023-04-18T09:12:56.976Z,14.61
2023-04-18T09:15:23.642Z,14.49
2023-04-18T09:17:50.190Z,15.19
2023-04-18T09:20:17.057Z,14.62
2023-04-18T09:22:44.316Z,14.18
2023-04-18T09:25:10.970Z,14.40
2023-04-18T09:27:38.552Z,14.70
2023-04-18T09:30:05.485Z,14.73
2023-04-18T09:32:31.994Z,13.85
2023-04-18T09:34:58.624Z,14.64
2023-04-18T09:37:25.397Z,14.93
2023-04-18T09:39:52.699Z,15.10
2023-04-18T09:42:19.261Z,15.07
2023-04-18T09:48:05.582Z,14.48
2023-04-18T10:09:37.835Z,14.94
2023-04-18T10:12:04.398Z,14.60
2023-04-18T10:14:31.123Z,14.98
2023-04-18T10:16:57.720Z,15.29
2023-04-18T10:19:24.322Z,15.24
2023-04-18T10:21:51.311Z,15.50
2023-04-18T10:24:18.254Z,15.58
2023-04-18T10:26:48.083Z,15.46
2023-04-18T10:29:14.815Z,15.48
2023-04-18T10:31:42.471Z,15.37
2023-04-18T10:34:09.166Z,15.54
2023-04-18T10:36:36.577Z,15.44
2023-04-18T10:39:06.613Z,15.13
2023-04-18T10:41:33.232Z,15.63
2023-04-18T10:43:59.832Z,15.54
2023-04-18T10:46:32.525Z,16.03
2023-04-18T10:48:59.673Z,15.83
2023-04-18T10:51:26.288Z,16.06
2023-04-18T10:53:53.619Z,15.66
2023-04-18T10:56:24.732Z,15.89
2023-04-18T10:58:51.571Z,15.96
2023-04-18T11:01:18.303Z,15.62
2023-04-18T11:03:45.652Z,15.25
2023-04-18T11:06:12.251Z,15.88
2023-04-18T11:11:36.979Z,16.40
2023-04-18T11:14:03.560Z,16.01
2023-04-18T11:16:30.230Z,15.71
2023-04-18T11:18:57.079Z,16.58
2023-04-18T11:21:24.348Z,16.21
2023-04-18T11:23:55.420Z,16.76
2023-04-18T11:26:21.956Z,17.23
2023-04-18T11:28:48.743Z,16.56
2023-04-18T11:31:17.914Z,16.72
2023-04-18T11:33:44.522Z,17.05
2023-04-18T11:36:11.060Z,16.02
2023-04-18T11:38:42.558Z,16.02
2023-04-18T11:41:09.104Z,16.39
2023-04-18T11:43:39.006Z,16.69
2023-04-18T11:46:06.683Z,16.34
2023-04-18T11:48:33.333Z,16.82
2023-04-18T11:51:00.455Z,16.49
2023-04-18T11:53:27.031Z,16.87
2023-04-18T11:55:53.604Z,16.69
2023-04-18T11:58:20.218Z,17.19
2023-04-18T12:00:47.053Z,17.24
2023-04-18T12:03:14.785Z,17.01
2023-04-18T12:05:42.231Z,16.45
2023-04-18T12:08:09.344Z,16.84
2023-04-18T12:10:35.959Z,16.50
2023-04-18T12:13:03.556Z,16.75
2023-04-18T12:15:32.338Z,16.64
2023-04-18T12:18:01.438Z,17.55
2023-04-18T12:20:29.281Z,17.98
2023-04-18T12:22:55.848Z,18.33
2023-04-18T12:25:25.014Z,18.76
2023-04-18T12:27:54.514Z,17.82
2023-04-18T12:30:23.708Z,17.96
2023-04-18T12:32:50.378Z,18.71
2023-04-18T12:35:17.749Z,19.20
2023-04-18T12:37:44.452Z,19.60
2023-04-18T12:40:11.058Z,18.24
2023-04-18T12:42:38.519Z,18.48
2023-04-18T12:45:05.097Z,18.33
2023-04-18T12:47:31.729Z,18.44
2023-04-18T12:49:58.561Z,18.48
2023-04-18T12:52:25.149Z,19.13
2023-04-18T12:54:52.036Z,19.31
2023-04-18T12:57:18.895Z,18.53
2023-04-18T12:59:45.539Z,19.10
2023-04-18T13:02:12.169Z,19.24
2023-04-18T13:04:40.734Z,19.66
2023-04-18T13:07:10.383Z,20.16
2023-04-18T13:09:39.164Z,19.52
2023-04-18T13:12:05.794Z,19.45
2023-04-18T13:14:33.159Z,19.94
2023-04-18T13:16:59.819Z,19.69
2023-04-18T13:19:27.293Z,19.22
2023-04-18T13:21:54.799Z,19.29
2023-04-18T13:24:23.799Z,19.61
2023-04-18T13:26:50.960Z,19.73
2023-04-18T13:29:18.116Z,19.42
2023-04-18T13:31:45.019Z,19.90
2023-04-18T13:34:11.713Z,19.21
2023-04-18T13:36:38.563Z,18.82
2023-04-18T13:39:05.581Z,18.89
2023-04-18T13:41:32.083Z,19.20
2023-04-18T13:43:58.916Z,19.15
2023-04-18T13:46:25.592Z,19.07
2023-04-18T13:48:52.199Z,19.55
2023-04-18T13:51:18.948Z,19.91
2023-04-18T13:53:45.613Z,19.75
2023-04-18T13:56:12.254Z,19.76
2023-04-18T13:58:39.712Z,19.47
2023-04-18T14:01:06.928Z,20.01
2023-04-18T14:03:35.422Z,19.91
2023-04-18T14:06:04.326Z,19.84
2023-04-18T14:08:30.868Z,19.68
2023-04-18T14:10:57.505Z,19.85
2023-04-18T14:13:24.337Z,19.89
2023-04-18T14:15:52.245Z,19.87
2023-04-18T14:18:18.858Z,20.06
2023-04-18T14:20:47.848Z,19.23
2023-04-18T14:23:14.322Z,20.09
2023-04-18T14:25:43.291Z,20.27
2023-04-18T14:28:10.156Z,19.65
2023-04-18T14:30:37.235Z,20.08
2023-04-18T14:33:03.928Z,19.76
2023-04-18T14:35:30.958Z,19.96
2023-04-18T14:37:59.199Z,19.64
2023-04-18T14:40:25.831Z,20.00
2023-04-18T14:42:52.397Z,20.02
2023-04-18T14:45:19.234Z,20.15
2023-04-18T14:47:46.026Z,19.82
2023-04-18T14:50:12.778Z,20.02
2023-04-18T14:52:41.551Z,20.04
2023-04-18T14:55:08.204Z,19.78
2023-04-18T14:57:35.074Z,20.13
2023-04-18T15:00:05.112Z,19.36
2023-04-18T15:02:32.297Z,18.23
2023-04-18T15:04:59.218Z,19.05
2023-04-18T15:07:26.193Z,18.61
2023-04-18T15:09:53.027Z,18.42
2023-04-18T15:12:19.631Z,17.32
2023-04-18T15:17:56.194Z,18.38
2023-04-18T15:20:25.423Z,18.31
2023-04-18T15:22:52.082Z,18.62
2023-04-18T15:25:21.644Z,19.48
2023-04-18T15:27:48.245Z,19.82
2023-04-18T15:30:16.032Z,19.55
2023-04-18T15:32:42.944Z,18.71
2023-04-18T15:35:09.506Z,19.08
2023-04-18T15:37:36.084Z,19.62
2023-04-18T15:40:02.641Z,19.20
2023-04-18T15:42:31.667Z,18.48
2023-04-18T15:44:58.695Z,18.07
2023-04-18T15:47:25.247Z,17.84
2023-04-18T15:49:52.546Z,17.62
2023-04-18T15:52:19.024Z,17.29
2023-04-18T15:54:46.590Z,17.07
2023-04-18T15:57:13.924Z,16.99
2023-04-18T15:59:40.463Z,16.62
2023-04-18T16:02:07.142Z,16.76
2023-04-18T16:04:37.738Z,16.70
2023-04-18T16:07:05.278Z,16.35
2023-04-18T16:09:31.937Z,16.41
2023-04-18T16:11:58.488Z,16.91
2023-04-18T16:14:25.092Z,16.91
2023-04-18T16:16:51.664Z,16.95
2023-04-18T16:19:21.234Z,16.71
2023-04-18T16:21:47.756Z,16.41
2023-04-18T16:24:15.124Z,16.62
2023-04-18T16:26:42.120Z,16.68
2023-04-18T16:29:09.023Z,16.80
2023-04-18T16:31:35.853Z,16.35
2023-04-18T16:34:05.519Z,16.40
2023-04-18T16:36:32.374Z,16.37
2023-04-18T16:38:59.401Z,16.14
2023-04-18T16:41:25.963Z,16.07
2023-04-18T16:43:52.668Z,16.20
2023-04-18T16:46:19.262Z,16.29
2023-04-18T16:48:46.750Z,16.38
2023-04-18T16:51:13.528Z,16.24
2023-04-18T16:53:40.122Z,16.32
2023-04-18T16:56:06.980Z,16.41
2023-04-18T16:58:33.887Z,16.42
2023-04-18T17:01:00.570Z,16.46
2023-04-18T17:03:27.480Z,16.60
2023-04-18T17:05:54.243Z,16.43
2023-04-18T17:08:20.786Z,16.37
2023-04-18T17:10:47.369Z,16.56
2023-04-18T17:13:14.251Z,16.45
2023-04-18T17:15:41.096Z,16.64
2023-04-18T17:18:09.933Z,16.67
2023-04-18T17:20:36.517Z,16.38
2023-04-18T17:23:03.206Z,16.88
2023-04-18T17:25:30.163Z,17.18
2023-04-18T17:27:56.732Z,16.69
2023-04-18T17:30:24.452Z,16.42
2023-04-18T17:32:51.358Z,16.47
2023-04-18T17:35:18.924Z,16.50
2023-04-18T17:37:45.753Z,16.56
2023-04-18T17:40:12.271Z,16.51
2023-04-18T17:42:40.995Z,16.31
2023-04-18T17:45:09.765Z,16.48
2023-04-18T17:47:36.460Z,16.21
2023-04-18T17:50:03.209Z,15.80
2023-04-18T17:52:30.557Z,15.75
2023-04-18T17:54:57.528Z,15.80
2023-04-18T17:57:24.395Z,15.74
2023-04-18T17:59:51.249Z,15.66
2023-04-18T18:02:17.882Z,15.44
2023-04-18T18:04:44.660Z,15.17
2023-04-18T18:07:11.339Z,15.08
2023-04-18T18:09:38.228Z,14.92
2023-04-18T18:12:04.830Z,14.77
2023-04-18T18:14:32.901Z,14.77
2023-04-18T18:16:59.763Z,14.89
2023-04-18T18:19:26.228Z,14.79
2023-04-18T18:21:52.818Z,14.64
2023-04-18T18:24:19.731Z,14.44
2023-04-18T18:26:48.270Z,14.29
2023-04-18T18:29:17.174Z,14.12
2023-04-18T18:31:43.922Z,14.13
2023-04-18T18:34:10.836Z,13.92
2023-04-18T18:36:37.839Z,13.76
2023-04-18T18:39:05.310Z,13.69
2023-04-18T18:41:31.933Z,13.64
2023-04-18T18:43:58.500Z,13.44
2023-04-18T18:46:25.396Z,13.52
2023-04-18T18:48:52.290Z,13.53
2023-04-18T18:51:18.863Z,13.49
2023-04-18T18:53:46.463Z,13.45
2023-04-18T18:56:13.927Z,13.42
2023-04-18T18:58:40.767Z,13.54
2023-04-18T19:01:07.350Z,13.36
2023-04-18T19:03:35.125Z,13.49
2023-04-18T19:06:01.761Z,13.43
2023-04-18T19:08:31.121Z,13.49
2023-04-18T19:10:57.725Z,13.23
2023-04-18T19:13:24.265Z,13.21
2023-04-18T19:15:50.923Z,13.17
2023-04-18T19:24:24.402Z,13.20
2023-04-18T19:26:51.161Z,13.19
2023-04-18T19:29:17.679Z,13.14
2023-04-18T19:31:44.341Z,13.12
2023-04-18T19:34:10.899Z,13.08
2023-04-18T19:36:37.406Z,13.01
2023-04-18T19:39:04.121Z,13.01
2023-04-18T19:41:30.797Z,13.07
2023-04-18T19:43:59.826Z,13.04
2023-04-18T19:46:26.603Z,13.06
2023-04-18T19:48:53.177Z,13.12
2023-04-18T19:51:20.481Z,13.10
2023-04-18T19:53:48.069Z,13.05
2023-04-18T19:56:14.687Z,13.08
2023-04-18T19:58:41.191Z,12.98
2023-04-18T20:01:07.773Z,12.91
2023-04-18T20:03:34.649Z,12.90
2023-04-18T20:06:01.388Z,12.87
2023-04-18T20:08:27.844Z,12.97
2023-04-18T20:10:54.708Z,12.97
2023-04-18T20:13:21.201Z,12.87
2023-04-18T20:15:49.047Z,12.97
2023-04-18T20:18:15.855Z,13.00
2023-04-18T20:20:42.710Z,12.82
2023-04-18T20:23:11.386Z,12.85
2023-04-18T20:25:37.922Z,12.76
2023-04-18T20:28:04.413Z,12.74
2023-04-18T20:30:31.795Z,12.76
2023-04-18T20:32:58.368Z,12.75
2023-04-18T20:35:24.975Z,12.81
2023-04-18T20:37:51.787Z,12.73
2023-04-18T20:40:18.316Z,12.61
2023-04-18T20:42:45.039Z,12.57
2023-04-18T20:45:11.686Z,12.64
2023-04-18T20:47:39.380Z,12.46
2023-04-18T20:50:05.899Z,12.58
2023-04-18T20:52:32.350Z,12.50
2023-04-18T20:54:59.206Z,12.43
2023-04-18T20:57:25.986Z,12.37
2023-04-18T20:59:52.904Z,12.30
2023-04-18T21:02:21.510Z,12.45
2023-04-18T21:04:48.516Z,12.47
2023-04-18T21:07:15.153Z,12.42
2023-04-18T21:09:41.711Z,12.45
2023-04-18T21:12:08.229Z,12.40
2023-04-18T21:14:34.801Z,12.44
2023-04-18T21:17:01.420Z,12.34
2023-04-18T21:19:28.071Z,12.59
2023-04-18T21:21:55.729Z,13.29
2023-04-18T21:24:22.585Z,13.17
2023-04-18T21:26:51.246Z,14.14
2023-04-18T21:29:17.695Z,14.12
2023-04-18T21:31:44.265Z,14.43
2023-04-18T21:34:10.870Z,14.38
2023-04-18T21:36:39.754Z,14.70
2023-04-18T21:39:06.568Z,14.01
2023-04-18T21:41:35.291Z,14.35
2023-04-18T21:44:02.115Z,14.91
2023-04-18T21:46:28.686Z,15.00
2023-04-18T21:48:55.512Z,14.01
2023-04-18T21:51:21.999Z,14.78
2023-04-18T21:53:48.496Z,15.30
2023-04-18T21:56:17.272Z,15.38
2023-04-18T21:58:43.763Z,15.52
2023-04-18T22:01:17.685Z,15.65
2023-04-18T22:03:47.314Z,15.15
2023-04-18T22:06:23.900Z,15.65
2023-04-18T22:08:54.788Z,15.41
2023-04-18T22:11:24.349Z,14.30
2023-04-18T22:13:51.174Z,14.80
2023-04-18T22:16:19.033Z,13.24
2023-04-18T22:18:48.393Z,12.96
2023-04-18T22:21:15.303Z,12.64
2023-04-18T22:23:42.876Z,13.28
2023-04-18T22:26:09.722Z,12.59
2023-04-18T22:28:40.177Z,13.31
2023-04-18T22:31:07.017Z,13.60
2023-04-18T22:33:33.729Z,13.26
2023-04-18T22:36:00.577Z,13.07
2023-04-18T22:38:27.134Z,14.00
2023-04-18T22:40:53.704Z,14.01
2023-04-18T22:43:20.214Z,14.44
2023-04-18T22:45:46.833Z,14.80
2023-04-18T22:48:13.667Z,14.47
2023-04-18T22:50:40.283Z,14.82
2023-04-18T22:53:07.074Z,15.12
2023-04-18T22:55:33.658Z,15.04
2023-04-18T22:58:00.117Z,14.73
2023-04-18T23:00:29.167Z,15.04
2023-04-18T23:02:55.854Z,15.06
2023-04-18T23:05:22.435Z,15.04
2023-04-18T23:07:49.417Z,15.26
2023-04-18T23:10:15.952Z,15.43
2023-04-18T23:12:42.511Z,15.39
2023-04-18T23:15:09.915Z,14.81
2023-04-18T23:17:36.606Z,14.97
2023-04-18T23:20:10.707Z,15.13
2023-04-18T23:22:42.194Z,15.16
2023-04-18T23:25:09.220Z,15.25
2023-04-18T23:27:35.889Z,15.37
2023-04-18T23:30:05.033Z,15.30
2023-04-18T23:32:34.906Z,15.26
2023-04-18T23:35:05.050Z,14.63
2023-04-18T23:37:36.230Z,14.72
2023-04-18T23:40:05.696Z,15.07
2023-04-18T23:42:33.174Z,15.30
2023-04-18T23:44:59.944Z,15.06
2023-04-18T23:47:26.470Z,15.02
2023-04-18T23:49:54.723Z,14.91
2023-04-18T23:58:23.001Z,14.76
